Terminal Aerodrome Forecast
Issued by NWS Omaha/Valley, NE

Home | Current Version | Previous Version | Text Only | Print | Product List | Glossary On
Versions: 1 2 3 4 5 6 7 8 9 10 11 12 13 14 15 16 17 18 19 20 21 22 23 24 25 26 27 28 29 30 31 32 33 34 35 36 37 38 39 40 41 42 43 44
000
FTUS43 KOAX 281138
TAFLNK
TAF
KLNK 281138Z 2812/2912 16008KT P6SM OVC025
      TEMPO 2812/2815 5SM -TSRA BR OVC012CB
     FM281600 17008KT P6SM OVC040
      TEMPO 2820/2824 6SM -SHRA OVC025
     FM290600 15008KT 4SM BR OVC012=

USA.gov is the U.S. government's official web portal to all federal, state and local government web resources and services.